createdAt,value
2022-08-10T00:01:54.467Z,100273.16
2022-08-10T00:04:23.933Z,100262.69
2022-08-10T00:06:55.606Z,100262.22
2022-08-10T00:09:24.010Z,100268.78
2022-08-10T00:11:51.457Z,100259.12
2022-08-10T00:14:18.924Z,100253.28
2022-08-10T00:16:46.971Z,100256.81
2022-08-10T00:19:16.594Z,100254.53
2022-08-10T00:21:45.686Z,100252.91
2022-08-10T00:24:14.369Z,100249.91
2022-08-10T00:27:58.522Z,100247.63
2022-08-10T00:29:29.684Z,100252.28
2022-08-10T00:31:59.114Z,100248.28
2022-08-10T00:34:28.623Z,100253.25
2022-08-10T00:36:57.522Z,100259.06
2022-08-10T00:39:26.032Z,100253.84
2022-08-10T00:42:06.793Z,100250.69
2022-08-10T00:44:48.990Z,100251.59
2022-08-10T00:47:36.124Z,100247.13
2022-08-10T00:50:06.859Z,100248.62
2022-08-10T00:52:35.688Z,100241.88
2022-08-10T00:55:04.995Z,100251.34
2022-08-10T00:57:34.225Z,100238.13
2022-08-10T01:00:02.069Z,100251.97
2022-08-10T01:02:30.785Z,100247.97
2022-08-10T01:05:03.553Z,100248.88
2022-08-10T01:07:53.492Z,100249.94
2022-08-10T01:10:49.219Z,100244.78
2022-08-10T01:13:39.909Z,100246.81
2022-08-10T01:16:27.508Z,100244.53
2022-08-10T01:19:14.348Z,100247.09
2022-08-10T01:21:54.307Z,100246.38
2022-08-10T01:24:43.633Z,100241.03
2022-08-10T01:27:45.331Z,100241.56
2022-08-10T01:30:14.217Z,100244.47
2022-08-10T01:32:52.362Z,100247.09
2022-08-10T01:35:41.746Z,100244.75
2022-08-10T01:38:23.442Z,100245.19
2022-08-10T01:40:54.847Z,100242.62
2022-08-10T01:43:25.294Z,100242.06
2022-08-10T01:45:56.360Z,100250.16
2022-08-10T01:48:32.071Z,100246.12
2022-08-10T01:51:23.162Z,100254.81
2022-08-10T01:54:12.169Z,100256.41
2022-08-10T01:56:42.920Z,100258.97
2022-08-10T01:59:19.012Z,100255.19
2022-08-10T02:01:51.044Z,100258.41
2022-08-10T02:04:19.871Z,100264.19
2022-08-10T02:06:52.701Z,100257.72
2022-08-10T02:09:24.347Z,100260.00
2022-08-10T02:12:05.107Z,100253.31
2022-08-10T02:14:42.303Z,100259.41
2022-08-10T02:18:00.212Z,100252.91
2022-08-10T02:20:03.008Z,100255.06
2022-08-10T02:22:38.010Z,100253.75
2022-08-10T02:25:39.775Z,100251.66
2022-08-10T02:27:58.144Z,100254.09
2022-08-10T02:30:26.533Z,100256.63
2022-08-10T02:32:54.878Z,100253.06
2022-08-10T02:35:22.936Z,100260.78
2022-08-10T02:38:00.105Z,100257.13
2022-08-10T02:45:02.632Z,100253.22
2022-08-10T02:45:18.654Z,100258.94
2022-08-10T02:46:55.208Z,100263.66
2022-08-10T02:49:28.267Z,100267.00
2022-08-10T02:52:06.497Z,100271.03
2022-08-10T02:54:39.754Z,100273.16
2022-08-10T02:57:16.332Z,100273.47
2022-08-10T02:59:46.682Z,100276.88
2022-08-10T03:02:16.955Z,100281.13
2022-08-10T03:04:55.542Z,100271.56
2022-08-10T03:07:44.626Z,100275.91
2022-08-10T03:10:19.670Z,100277.37
2022-08-10T03:12:55.167Z,100285.81
2022-08-10T03:15:24.399Z,100293.50
2022-08-10T03:17:57.665Z,100295.38
2022-08-10T03:20:37.686Z,100291.19
2022-08-10T03:23:13.533Z,100294.50
2022-08-10T03:25:52.589Z,100300.97
2022-08-10T03:28:27.642Z,100306.03
2022-08-10T03:30:56.242Z,100302.22
2022-08-10T03:33:26.685Z,100300.44
2022-08-10T03:36:42.184Z,100305.66
2022-08-10T03:38:43.668Z,100307.09
2022-08-10T03:41:16.423Z,100313.75
2022-08-10T03:43:47.750Z,100311.69
2022-08-10T03:46:18.132Z,100304.16
2022-08-10T03:48:49.015Z,100302.50
2022-08-10T03:51:19.104Z,100312.53
2022-08-10T03:54:05.524Z,100309.59
2022-08-10T03:56:36.590Z,100314.19
2022-08-10T03:59:05.717Z,100318.31
2022-08-10T04:02:44.805Z,100310.78
2022-08-10T04:04:24.600Z,100317.09
2022-08-10T04:06:55.939Z,100319.16
2022-08-10T04:09:53.946Z,100318.28
2022-08-10T04:12:17.500Z,100323.12
2022-08-10T04:14:49.752Z,100321.56
2022-08-10T04:18:04.514Z,100321.22
2022-08-10T04:20:34.554Z,100325.41
2022-08-10T04:23:08.897Z,100314.50
2022-08-10T04:25:37.768Z,100314.09
2022-08-10T04:28:06.408Z,100307.66
2022-08-10T04:30:35.303Z,100323.75
2022-08-10T04:33:04.528Z,100326.81
2022-08-10T04:35:32.628Z,100319.31
2022-08-10T04:38:01.568Z,100316.31
2022-08-10T04:40:31.076Z,100319.16
2022-08-10T04:43:10.899Z,100323.72
2022-08-10T04:45:49.319Z,100320.72
2022-08-10T04:48:41.418Z,100322.97
2022-08-10T04:51:17.686Z,100323.88
2022-08-10T04:54:04.022Z,100330.34
2022-08-10T04:56:36.958Z,100327.44
2022-08-10T04:59:06.091Z,100325.50
2022-08-10T05:02:12.153Z,100326.22
2022-08-10T05:04:34.068Z,100324.59
2022-08-10T05:07:15.477Z,100329.78
2022-08-10T05:10:01.421Z,100328.50
2022-08-10T05:12:36.357Z,100335.16
2022-08-10T05:15:09.594Z,100328.84
2022-08-10T05:17:38.586Z,100323.47
2022-08-10T05:20:08.457Z,100331.87
2022-08-10T05:22:43.430Z,100339.28
2022-08-10T05:25:16.739Z,100330.06
2022-08-10T05:27:44.695Z,100331.63
2022-08-10T05:30:18.498Z,100328.16
2022-08-10T05:32:57.959Z,100327.41
2022-08-10T05:35:28.601Z,100328.50
2022-08-10T05:38:09.087Z,100317.91
2022-08-10T05:40:46.597Z,100323.12
2022-08-10T05:43:20.478Z,100326.28
2022-08-10T05:46:17.682Z,100334.50
2022-08-10T05:48:41.854Z,100330.66
2022-08-10T05:51:26.576Z,100328.13
2022-08-10T05:54:01.059Z,100325.16
2022-08-10T05:56:56.099Z,100323.06
2022-08-10T06:00:12.612Z,100331.53
2022-08-10T06:02:32.159Z,100329.66
2022-08-10T06:05:02.990Z,100331.06
2022-08-10T06:07:30.503Z,100326.69
2022-08-10T06:09:59.447Z,100335.44
2022-08-10T06:12:30.604Z,100332.78
2022-08-10T06:15:05.105Z,100338.91
2022-08-10T06:17:33.557Z,100337.03
2022-08-10T06:20:01.749Z,100336.28
2022-08-10T06:22:33.537Z,100338.00
2022-08-10T06:25:32.392Z,100330.56
2022-08-10T06:27:50.934Z,100330.50
2022-08-10T06:30:20.962Z,100339.25
2022-08-10T06:32:53.776Z,100333.34
2022-08-10T06:35:22.828Z,100332.94
2022-08-10T06:37:51.826Z,100338.37
2022-08-10T06:40:20.280Z,100334.59
2022-08-10T06:42:49.262Z,100335.72
2022-08-10T06:45:26.778Z,100345.47
2022-08-10T06:48:01.017Z,100336.47
2022-08-10T06:50:56.116Z,100337.56
2022-08-10T06:53:52.825Z,100325.06
2022-08-10T06:56:36.003Z,100333.19
2022-08-10T06:59:21.694Z,100336.75
2022-08-10T07:01:53.795Z,100324.53
2022-08-10T07:04:32.027Z,100329.47
2022-08-10T07:07:05.588Z,100329.28
2022-08-10T07:09:39.391Z,100329.91
2022-08-10T07:12:09.380Z,100334.00
2022-08-10T07:14:40.315Z,100340.44
2022-08-10T07:17:15.756Z,100341.78
2022-08-10T07:19:50.375Z,100340.62
2022-08-10T07:23:27.155Z,100335.06
2022-08-10T07:25:22.338Z,100330.38
2022-08-10T07:27:59.751Z,100319.25
2022-08-10T07:30:30.841Z,100315.31
2022-08-10T07:32:59.303Z,100313.78
2022-08-10T07:35:29.829Z,100309.03
2022-08-10T07:38:04.722Z,100306.16
2022-08-10T07:40:33.861Z,100309.25
2022-08-10T07:43:02.592Z,100322.13
2022-08-10T07:45:32.149Z,100327.28
2022-08-10T07:48:08.063Z,100307.44
2022-08-10T07:50:38.162Z,100314.56
2022-08-10T07:53:09.141Z,100313.66
2022-08-10T07:56:05.895Z,100314.63
2022-08-10T07:58:37.167Z,100315.37
2022-08-10T08:01:05.006Z,100322.56
2022-08-10T08:03:33.956Z,100321.44
2022-08-10T08:06:05.380Z,100321.00
2022-08-10T08:08:41.884Z,100317.94
2022-08-10T08:11:09.561Z,100300.88
2022-08-10T08:13:55.245Z,100317.19
2022-08-10T08:16:24.167Z,100313.94
2022-08-10T08:19:24.047Z,100311.50
2022-08-10T08:24:08.804Z,100319.88
2022-08-10T08:24:33.886Z,100313.75
2022-08-10T08:27:03.368Z,100317.91
2022-08-10T08:29:35.927Z,100316.88
2022-08-10T08:32:04.635Z,100320.62
2022-08-10T08:34:33.077Z,100310.63
2022-08-10T08:37:01.358Z,100304.34
2022-08-10T08:39:31.886Z,100305.22
2022-08-10T08:42:08.221Z,100300.94
2022-08-10T08:44:51.026Z,100299.03
2022-08-10T08:48:03.830Z,100310.34
2022-08-10T08:50:39.323Z,100304.81
2022-08-10T08:53:25.574Z,100308.28
2022-08-10T08:56:26.441Z,100299.50
2022-08-10T08:59:31.897Z,100309.94
2022-08-10T09:03:08.279Z,100302.97
2022-08-10T09:05:58.433Z,100301.22
2022-08-10T09:08:27.440Z,100312.47
2022-08-10T09:11:17.042Z,100305.00
2022-08-10T09:13:53.348Z,100294.53
2022-08-10T09:16:38.171Z,100294.31
2022-08-10T09:19:19.585Z,100293.12
2022-08-10T09:22:19.614Z,100292.34
2022-08-10T09:25:16.839Z,100280.00
2022-08-10T09:27:50.324Z,100296.22
2022-08-10T09:30:29.221Z,100285.84
2022-08-10T09:36:22.105Z,100280.13
2022-08-10T09:36:33.384Z,100283.94
2022-08-10T09:40:56.067Z,100297.50
2022-08-10T09:43:25.250Z,100286.12
2022-08-10T09:46:12.912Z,100278.28
2022-08-10T09:48:50.379Z,100284.41
2022-08-10T09:52:07.413Z,100279.50
2022-08-10T09:54:50.998Z,100282.06
2022-08-10T09:57:44.576Z,100285.69
2022-08-10T10:00:22.163Z,100269.59
2022-08-10T10:03:34.888Z,100274.16
2022-08-10T10:06:24.131Z,100270.19
2022-08-10T10:09:10.548Z,100267.16
2022-08-10T10:12:22.393Z,100266.91
2022-08-10T10:15:24.283Z,100266.97
2022-08-10T10:18:05.764Z,100262.34
2022-08-10T10:20:46.672Z,100255.34
2022-08-10T10:23:36.980Z,100257.75
2022-08-10T10:26:20.619Z,100250.56
2022-08-10T10:29:30.769Z,100251.56
2022-08-10T10:32:01.644Z,100250.25
2022-08-10T10:34:44.919Z,100249.75
2022-08-10T10:37:14.028Z,100240.06
2022-08-10T10:39:44.659Z,100236.34
2022-08-10T10:42:47.381Z,100243.25
2022-08-10T10:45:28.810Z,100237.97
2022-08-10T10:48:17.573Z,100225.62
2022-08-10T10:50:58.732Z,100226.72
2022-08-10T10:53:57.230Z,100218.84
2022-08-10T10:56:27.859Z,100211.84
2022-08-10T10:59:53.905Z,100225.47
2022-08-10T11:02:14.202Z,100233.09
2022-08-10T11:04:58.524Z,100225.97
2022-08-10T11:07:34.374Z,100220.28
2022-08-10T11:10:31.590Z,100218.88
2022-08-10T11:14:25.362Z,100213.97
2022-08-10T11:16:20.693Z,100209.78
2022-08-10T11:18:51.993Z,100207.66
2022-08-10T11:21:24.804Z,100194.03
2022-08-10T11:24:48.538Z,100219.31
2022-08-10T11:27:22.266Z,100218.50
2022-08-10T11:30:01.141Z,100208.28
2022-08-10T11:32:52.986Z,100198.09
2022-08-10T11:35:31.664Z,100206.56
2022-08-10T11:38:29.819Z,100205.81
2022-08-10T11:42:11.987Z,100203.37
2022-08-10T11:44:40.713Z,100204.00
2022-08-10T11:47:12.075Z,100192.94
2022-08-10T11:49:51.215Z,100199.44
2022-08-10T11:52:58.120Z,100201.94
2022-08-10T11:55:29.312Z,100202.81
2022-08-10T11:58:00.081Z,100201.09
2022-08-10T12:00:32.713Z,100192.72
2022-08-10T12:03:03.775Z,100198.22
2022-08-10T12:05:52.599Z,100199.69
2022-08-10T12:10:02.306Z,100199.63
2022-08-10T12:11:24.819Z,100186.00
2022-08-10T12:14:23.001Z,100184.25
2022-08-10T12:16:59.976Z,100182.59
2022-08-10T12:19:58.725Z,100185.38
2022-08-10T12:22:33.460Z,100172.19
2022-08-10T12:25:04.396Z,100175.31
2022-08-10T12:27:39.146Z,100172.56
2022-08-10T12:30:10.364Z,100163.47
2022-08-10T12:32:42.349Z,100170.09
2022-08-10T12:35:22.006Z,100168.16
2022-08-10T12:37:53.542Z,100169.25
2022-08-10T12:40:36.458Z,100171.19
2022-08-10T12:44:07.561Z,100162.37
2022-08-10T12:46:28.854Z,100163.97
2022-08-10T12:49:20.347Z,100158.41
2022-08-10T12:51:53.594Z,100153.25
2022-08-10T12:54:31.991Z,100163.47
2022-08-10T12:57:06.206Z,100151.34
2022-08-10T12:59:42.985Z,100155.22
2022-08-10T13:02:15.246Z,100151.34
2022-08-10T13:04:44.170Z,100142.81
2022-08-10T13:08:03.935Z,100143.03
2022-08-10T13:10:06.009Z,100137.56
2022-08-10T13:12:40.268Z,100135.84
2022-08-10T13:15:45.501Z,100131.53
2022-08-10T13:18:18.690Z,100133.75
2022-08-10T13:20:51.517Z,100138.69
2022-08-10T13:23:22.860Z,100134.53
2022-08-10T13:25:50.943Z,100127.09
2022-08-10T13:28:36.200Z,100129.84
2022-08-10T13:31:08.079Z,100118.81
2022-08-10T13:34:36.568Z,100119.41
2022-08-10T13:36:38.025Z,100128.66
2022-08-10T13:39:06.513Z,100118.63
2022-08-10T13:41:42.093Z,100124.00
2022-08-10T13:44:14.754Z,100116.44
2022-08-10T13:46:50.025Z,100120.62
2022-08-10T13:49:19.291Z,100120.91
2022-08-10T13:51:56.773Z,100118.69
2022-08-10T13:54:29.438Z,100109.13
2022-08-10T13:56:58.048Z,100106.09
2022-08-10T14:00:34.959Z,100109.31
2022-08-10T14:02:22.135Z,100109.22
2022-08-10T14:04:50.653Z,100110.34
2022-08-10T14:07:18.325Z,100102.34
2022-08-10T14:09:47.703Z,100094.13
2022-08-10T14:12:16.737Z,100103.47
2022-08-10T14:14:45.688Z,100092.72
2022-08-10T14:17:25.921Z,100092.97
2022-08-10T14:19:58.577Z,100087.03
2022-08-10T14:22:40.373Z,100082.31
2022-08-10T14:25:13.328Z,100088.09
2022-08-10T14:28:02.031Z,100084.59
2022-08-10T14:30:31.567Z,100084.19
2022-08-10T14:33:04.264Z,100072.47
2022-08-10T14:36:20.426Z,100084.09
2022-08-10T14:38:28.333Z,100082.41
2022-08-10T14:40:57.697Z,100071.00
2022-08-10T14:43:29.705Z,100078.31
2022-08-10T14:46:08.247Z,100078.00
2022-08-10T14:48:42.558Z,100088.66
2022-08-10T14:51:12.776Z,100075.06
2022-08-10T14:53:44.773Z,100081.66
2022-08-10T14:56:13.896Z,100069.38
2022-08-10T14:59:05.325Z,100062.16
2022-08-10T15:02:37.630Z,100062.72
2022-08-10T15:04:26.817Z,100063.31
2022-08-10T15:07:12.147Z,100061.81
2022-08-10T15:10:00.664Z,100063.44
2022-08-10T15:12:34.745Z,100054.84
2022-08-10T15:15:04.596Z,100064.16
2022-08-10T15:17:37.416Z,100051.22
2022-08-10T15:20:28.693Z,100072.59
2022-08-10T15:23:01.411Z,100064.37
2022-08-10T15:25:30.128Z,100058.00
2022-08-10T15:28:05.481Z,100058.53
2022-08-10T15:30:47.629Z,100057.22
2022-08-10T15:34:02.206Z,100051.69
2022-08-10T15:37:02.179Z,100055.00
2022-08-10T15:40:24.405Z,100053.34
2022-08-10T15:42:33.392Z,100047.28
2022-08-10T15:45:01.260Z,100056.12
2022-08-10T15:47:37.703Z,100050.03
2022-08-10T15:50:16.883Z,100048.69
2022-08-10T15:53:01.790Z,100045.13
2022-08-10T15:55:41.434Z,100048.41
2022-08-10T15:58:40.147Z,100046.78
2022-08-10T16:02:13.418Z,100050.63
2022-08-10T16:04:31.678Z,100055.25
2022-08-10T16:07:11.179Z,100053.34
2022-08-10T16:10:22.467Z,100044.44
2022-08-10T16:12:42.299Z,100045.56
2022-08-10T16:15:12.545Z,100037.34
2022-08-10T16:17:55.047Z,100045.66
2022-08-10T16:20:33.682Z,100041.53
2022-08-10T16:23:24.832Z,100043.22
2022-08-10T16:26:13.477Z,100051.44
2022-08-10T16:28:58.245Z,100053.44
2022-08-10T16:31:29.292Z,100044.84
2022-08-10T16:33:59.256Z,100039.50
2022-08-10T16:36:48.068Z,100052.38
2022-08-10T16:39:59.350Z,100043.34
2022-08-10T16:42:20.425Z,100051.03
2022-08-10T16:45:01.662Z,100053.44
2022-08-10T16:47:29.961Z,100051.44
2022-08-10T16:50:00.403Z,100043.56
2022-08-10T16:52:29.658Z,100048.66
2022-08-10T16:55:17.157Z,100045.72
2022-08-10T16:57:50.200Z,100046.63
2022-08-10T17:00:22.276Z,100055.44
2022-08-10T17:02:52.821Z,100050.34
2022-08-10T17:06:11.317Z,100049.50
2022-08-10T17:08:12.585Z,100055.91
2022-08-10T17:10:41.753Z,100055.62
2022-08-10T17:13:11.147Z,100046.66
2022-08-10T17:15:43.360Z,100057.50
2022-08-10T17:18:27.573Z,100056.47
2022-08-10T17:21:19.944Z,100056.06
2022-08-10T17:23:51.136Z,100063.44
2022-08-10T17:26:28.331Z,100063.28
2022-08-10T17:29:58.523Z,100062.31
2022-08-10T17:32:44.818Z,100065.47
2022-08-10T17:35:14.612Z,100068.81
2022-08-10T17:37:56.037Z,100067.03
2022-08-10T17:40:26.399Z,100066.72
2022-08-10T17:42:55.192Z,100066.44
2022-08-10T17:45:48.173Z,100076.81
2022-08-10T17:48:17.042Z,100068.03
2022-08-10T17:50:49.549Z,100075.72
2022-08-10T17:53:35.554Z,100080.59
2022-08-10T17:56:03.073Z,100079.84
2022-08-10T17:58:31.755Z,100078.06
2022-08-10T18:01:38.148Z,100078.69
2022-08-10T18:03:55.931Z,100083.44
2022-08-10T18:06:24.027Z,100077.97
2022-08-10T18:09:09.709Z,100077.13
2022-08-10T18:11:41.865Z,100085.44
2022-08-10T18:14:10.023Z,100076.09
2022-08-10T18:16:41.850Z,100081.63
2022-08-10T18:19:13.740Z,100076.94
2022-08-10T18:21:43.222Z,100085.78
2022-08-10T18:24:16.647Z,100089.31
2022-08-10T18:26:46.259Z,100087.87
2022-08-10T18:29:18.829Z,100087.25
2022-08-10T18:31:48.249Z,100091.53
2022-08-10T18:34:18.938Z,100095.84
2022-08-10T18:36:47.692Z,100100.59
2022-08-10T18:39:21.573Z,100096.06
2022-08-10T18:42:05.489Z,100104.28
2022-08-10T18:44:45.223Z,100098.81
2022-08-10T18:47:20.079Z,100102.50
2022-08-10T18:49:58.730Z,100103.25
2022-08-10T18:52:30.200Z,100099.78
2022-08-10T18:55:23.124Z,100099.25
2022-08-10T18:57:58.221Z,100115.97
2022-08-10T19:00:59.834Z,100109.59
2022-08-10T19:03:55.182Z,100115.28
2022-08-10T19:06:37.929Z,100117.53
2022-08-10T19:09:46.202Z,100114.13
2022-08-10T19:12:37.921Z,100109.00
2022-08-10T19:15:18.537Z,100114.94
2022-08-10T19:18:06.265Z,100121.47
2022-08-10T19:20:44.295Z,100116.84
2022-08-10T19:23:44.053Z,100119.91
2022-08-10T19:26:44.862Z,100120.50
2022-08-10T19:30:04.999Z,100132.13
2022-08-10T19:33:07.467Z,100129.06
2022-08-10T19:36:16.790Z,100131.66
2022-08-10T19:39:01.121Z,100132.84
2022-08-10T19:41:44.295Z,100128.31
2022-08-10T19:44:58.525Z,100140.62
2022-08-10T19:47:39.429Z,100133.72
2022-08-10T19:50:13.170Z,100139.38
2022-08-10T19:53:09.097Z,100131.87
2022-08-10T19:55:49.641Z,100134.34
2022-08-10T19:58:43.465Z,100132.25
2022-08-10T20:01:12.326Z,100134.75
2022-08-10T20:03:46.727Z,100135.69
2022-08-10T20:06:39.421Z,100139.44
2022-08-10T20:09:43.551Z,100142.44
2022-08-10T20:12:19.221Z,100148.66
2022-08-10T20:15:04.546Z,100138.87
2022-08-10T20:17:51.721Z,100146.22
2022-08-10T20:20:30.613Z,100136.84
2022-08-10T20:23:13.882Z,100138.56
2022-08-10T20:25:46.702Z,100138.56
2022-08-10T20:28:31.969Z,100149.63
2022-08-10T20:31:11.529Z,100142.59
2022-08-10T20:34:04.923Z,100147.44
2022-08-10T20:36:58.368Z,100152.34
2022-08-10T20:40:10.403Z,100156.88
2022-08-10T20:42:53.346Z,100162.53
2022-08-10T20:45:26.301Z,100165.50
2022-08-10T20:48:04.002Z,100156.34
2022-08-10T20:50:42.299Z,100170.66
2022-08-10T20:53:13.381Z,100163.69
2022-08-10T20:56:04.079Z,100171.59
2022-08-10T20:58:57.971Z,100172.97
2022-08-10T21:02:01.582Z,100178.22
2022-08-10T21:04:58.714Z,100181.00
2022-08-10T21:08:00.322Z,100174.44
2022-08-10T21:10:42.448Z,100180.59
2022-08-10T21:13:35.224Z,100176.69
2022-08-10T21:16:02.806Z,100176.59
2022-08-10T21:19:07.889Z,100179.66
2022-08-10T21:22:08.554Z,100176.56
2022-08-10T21:25:15.368Z,100172.63
2022-08-10T21:27:47.156Z,100176.84
2022-08-10T21:30:17.545Z,100184.72
2022-08-10T21:33:09.486Z,100180.00
2022-08-10T21:35:46.465Z,100183.63
2022-08-10T21:38:52.238Z,100185.53
2022-08-10T21:41:58.973Z,100181.53
2022-08-10T21:45:07.969Z,100179.28
2022-08-10T21:48:31.866Z,100182.91
2022-08-10T21:52:01.539Z,100179.75
2022-08-10T21:54:52.418Z,100182.69
2022-08-10T21:58:07.787Z,100180.94
2022-08-10T22:04:04.347Z,100188.56
2022-08-10T22:06:55.160Z,100187.81
2022-08-10T22:09:47.524Z,100181.66
2022-08-10T22:12:37.110Z,100187.06
2022-08-10T22:16:10.096Z,100184.78
2022-08-10T22:18:36.918Z,100181.53
2022-08-10T22:25:17.434Z,100184.19
2022-08-10T22:28:12.489Z,100186.97
2022-08-10T22:31:26.031Z,100185.25
2022-08-10T22:31:36.981Z,100179.56
2022-08-10T22:34:51.757Z,100183.50
2022-08-10T22:37:50.017Z,100177.09
2022-08-10T22:40:39.523Z,100186.28
2022-08-10T22:43:35.795Z,100182.59
2022-08-10T22:46:32.749Z,100174.28
2022-08-10T22:49:00.381Z,100177.06
2022-08-10T22:51:40.416Z,100170.56
2022-08-10T22:54:34.936Z,100176.06
2022-08-10T22:57:21.789Z,100173.72
2022-08-10T22:59:49.815Z,100174.44
2022-08-10T23:02:50.598Z,100175.19
2022-08-10T23:05:24.573Z,100180.09
2022-08-10T23:07:58.772Z,100171.00
2022-08-10T23:10:29.166Z,100182.59
2022-08-10T23:13:04.467Z,100176.56
2022-08-10T23:16:00.144Z,100181.50
2022-08-10T23:18:55.907Z,100179.28
2022-08-10T23:21:27.021Z,100173.88
2022-08-10T23:24:16.032Z,100173.66
2022-08-10T23:26:43.992Z,100187.97
2022-08-10T23:29:14.694Z,100190.56
2022-08-10T23:32:01.144Z,100173.78
2022-08-10T23:34:36.235Z,100182.72
2022-08-10T23:37:06.660Z,100173.94
2022-08-10T23:39:37.112Z,100176.88
2022-08-10T23:42:08.876Z,100170.19
2022-08-10T23:44:42.026Z,100165.72
2022-08-10T23:47:13.057Z,100163.59
2022-08-10T23:49:41.489Z,100164.91
2022-08-10T23:52:11.322Z,100160.75
2022-08-10T23:54:45.310Z,100151.53
2022-08-10T23:57:17.150Z,100156.97
2022-08-10T23:59:50.585Z,100149.91
